createdAt,value
2022-09-15T00:03:02.940Z,14.59
2022-09-15T00:08:05.792Z,14.54
2022-09-15T00:13:08.511Z,14.50
2022-09-15T00:18:11.291Z,14.50
2022-09-15T00:23:15.333Z,14.51
2022-09-15T00:28:22.319Z,14.51
2022-09-15T00:33:25.012Z,14.51
2022-09-15T00:38:27.667Z,14.51
2022-09-15T00:43:55.554Z,14.50
2022-09-15T00:49:07.260Z,14.35
2022-09-15T00:54:22.454Z,14.30
2022-09-15T00:59:27.527Z,14.37
2022-09-15T01:04:30.197Z,14.44
2022-09-15T01:09:52.124Z,14.47
2022-09-15T01:14:54.894Z,14.47
2022-09-15T01:20:23.650Z,14.49
2022-09-15T01:25:44.579Z,14.50
2022-09-15T01:31:01.021Z,14.34
2022-09-15T01:36:45.386Z,14.37
2022-09-15T01:41:57.320Z,14.43
2022-09-15T01:47:04.036Z,14.51
2022-09-15T01:52:06.722Z,14.44
2022-09-15T01:57:09.489Z,14.40
2022-09-15T02:02:16.876Z,14.37
2022-09-15T02:07:31.961Z,14.43
2022-09-15T02:12:52.810Z,14.45
2022-09-15T02:17:55.752Z,14.37
2022-09-15T02:23:26.286Z,14.34
2022-09-15T02:28:31.240Z,14.42
2022-09-15T02:33:37.767Z,14.48
2022-09-15T02:38:45.633Z,14.46
2022-09-15T02:43:49.359Z,14.50
2022-09-15T02:48:53.446Z,14.46
2022-09-15T02:53:56.191Z,14.49
2022-09-15T02:58:58.852Z,14.47
2022-09-15T03:04:02.963Z,14.43
2022-09-15T03:09:07.541Z,14.31
2022-09-15T03:14:10.288Z,14.24
2022-09-15T03:19:12.993Z,14.21
2022-09-15T03:24:15.628Z,14.22
2022-09-15T03:29:18.334Z,14.25
2022-09-15T03:34:21.007Z,14.27
2022-09-15T03:39:24.486Z,14.26
2022-09-15T03:44:27.485Z,14.24
2022-09-15T03:49:30.231Z,14.23
2022-09-15T03:54:32.954Z,14.24
2022-09-15T03:59:35.617Z,14.15
2022-09-15T04:04:38.418Z,13.91
2022-09-15T04:09:42.008Z,13.91
2022-09-15T04:14:44.991Z,13.98
2022-09-15T04:19:48.178Z,14.06
2022-09-15T04:24:50.949Z,14.05
2022-09-15T04:29:53.915Z,14.07
2022-09-15T04:34:56.642Z,14.06
2022-09-15T04:39:59.721Z,14.08
2022-09-15T04:45:02.596Z,14.15
2022-09-15T04:50:06.063Z,14.28
2022-09-15T04:55:09.342Z,14.34
2022-09-15T05:00:13.487Z,14.31
2022-09-15T05:05:16.377Z,14.35
2022-09-15T05:10:20.097Z,14.42
2022-09-15T05:15:24.195Z,14.49
2022-09-15T05:20:26.961Z,14.54
2022-09-15T05:25:30.413Z,14.49
2022-09-15T05:30:38.799Z,14.54
2022-09-15T05:35:56.690Z,14.57
2022-09-15T05:41:07.752Z,14.61
2022-09-15T05:46:11.157Z,14.61
2022-09-15T05:51:14.484Z,14.64
2022-09-15T05:56:17.706Z,14.76
2022-09-15T06:01:26.511Z,14.89
2022-09-15T06:06:30.688Z,14.88
2022-09-15T06:11:36.576Z,14.84
2022-09-15T06:16:39.323Z,14.89
2022-09-15T06:21:42.162Z,14.97
2022-09-15T06:26:45.150Z,15.03
2022-09-15T06:31:48.370Z,15.13
2022-09-15T06:36:51.087Z,15.24
2022-09-15T06:42:02.207Z,15.30
2022-09-15T06:47:07.334Z,15.39
2022-09-15T06:52:10.029Z,15.47
2022-09-15T06:57:13.281Z,15.58
2022-09-15T07:02:16.035Z,15.70
2022-09-15T07:07:18.931Z,15.83
2022-09-15T07:12:21.638Z,15.90
2022-09-15T07:17:26.304Z,15.89
2022-09-15T07:22:28.992Z,15.94
2022-09-15T07:27:31.970Z,16.04
2022-09-15T07:32:34.641Z,16.11
2022-09-15T07:37:37.366Z,16.13
2022-09-15T07:42:44.460Z,16.13
2022-09-15T07:47:47.241Z,16.33
2022-09-15T07:52:49.899Z,16.55
2022-09-15T07:58:01.756Z,16.59
2022-09-15T08:03:04.507Z,16.44
2022-09-15T08:08:07.245Z,16.32
2022-09-15T08:13:10.073Z,16.43
2022-09-15T08:18:13.065Z,16.74
2022-09-15T08:23:15.874Z,16.90
2022-09-15T08:28:18.816Z,17.06
2022-09-15T08:33:21.451Z,17.17
2022-09-15T08:38:24.156Z,17.12
2022-09-15T08:43:28.651Z,16.97
2022-09-15T08:49:03.104Z,16.88
2022-09-15T08:54:11.770Z,16.88
2022-09-15T08:59:16.217Z,16.99
2022-09-15T09:04:33.803Z,17.07
2022-09-15T09:09:47.369Z,17.18
2022-09-15T09:15:14.146Z,17.25
2022-09-15T09:20:36.904Z,17.36
2022-09-15T09:25:42.046Z,17.48
2022-09-15T09:30:44.773Z,17.58
2022-09-15T09:35:51.752Z,17.81
2022-09-15T09:40:58.579Z,17.92
2022-09-15T09:46:15.031Z,18.04
2022-09-15T09:51:40.068Z,18.24
2022-09-15T09:56:47.308Z,18.34
2022-09-15T10:02:11.996Z,18.42
2022-09-15T10:07:17.752Z,18.51
2022-09-15T10:12:30.508Z,18.71
2022-09-15T10:17:36.340Z,18.93
2022-09-15T10:22:39.916Z,18.99
2022-09-15T10:27:43.204Z,19.00
2022-09-15T10:32:45.955Z,19.21
2022-09-15T10:38:12.469Z,19.52
2022-09-15T10:43:46.154Z,19.84
2022-09-15T10:49:18.643Z,19.91
2022-09-15T10:55:03.062Z,19.90
2022-09-15T11:00:12.704Z,19.81
2022-09-15T11:05:42.502Z,20.09
2022-09-15T11:11:00.402Z,19.84
2022-09-15T11:16:27.198Z,19.58
2022-09-15T11:21:46.384Z,19.70
2022-09-15T11:27:07.185Z,20.14
2022-09-15T11:32:15.180Z,19.93
2022-09-15T11:37:24.284Z,19.89
2022-09-15T11:42:52.499Z,19.85
2022-09-15T11:48:05.265Z,19.95
2022-09-15T11:53:36.944Z,20.11
2022-09-15T11:58:48.921Z,19.86
2022-09-15T12:04:04.065Z,19.81
2022-09-15T12:09:07.976Z,19.82
2022-09-15T12:14:16.804Z,19.70
2022-09-15T12:20:12.858Z,19.46
2022-09-15T12:25:24.803Z,19.16
2022-09-15T12:30:42.887Z,18.96
2022-09-15T12:35:45.931Z,18.69
2022-09-15T12:40:57.331Z,18.50
2022-09-15T12:46:00.739Z,18.49
2022-09-15T12:51:06.145Z,18.48
2022-09-15T12:56:11.765Z,18.44
2022-09-15T13:01:24.565Z,18.46
2022-09-15T13:06:34.313Z,18.55
2022-09-15T13:11:41.164Z,18.59
2022-09-15T13:17:04.255Z,18.50
2022-09-15T13:22:31.481Z,18.51
2022-09-15T13:27:58.304Z,18.56
2022-09-15T13:33:26.222Z,18.56
2022-09-15T13:38:46.195Z,18.53
2022-09-15T13:44:26.826Z,18.70
2022-09-15T13:50:29.518Z,18.82
2022-09-15T13:55:36.820Z,19.11
2022-09-15T14:00:47.958Z,19.23
2022-09-15T14:05:51.667Z,19.05
2022-09-15T14:11:01.181Z,19.02
2022-09-15T14:16:20.925Z,19.41
2022-09-15T14:21:29.449Z,22.86
2022-09-15T14:26:35.456Z,22.74
2022-09-15T14:31:41.058Z,21.19
2022-09-15T14:36:43.877Z,20.29
2022-09-15T14:41:47.060Z,20.07
2022-09-15T14:46:49.932Z,22.04
2022-09-15T14:51:53.604Z,24.39
2022-09-15T14:57:01.557Z,23.72
2022-09-15T15:02:43.444Z,22.81
2022-09-15T15:07:46.271Z,22.40
2022-09-15T15:12:55.060Z,21.79
2022-09-15T15:17:58.428Z,21.15
2022-09-15T15:23:15.537Z,20.79
2022-09-15T15:28:36.080Z,20.47
2022-09-15T15:33:55.874Z,19.99
2022-09-15T15:39:01.540Z,19.59
2022-09-15T15:44:09.644Z,19.26
2022-09-15T15:49:13.363Z,18.84
2022-09-15T15:54:16.267Z,18.52
2022-09-15T15:59:19.285Z,18.26
2022-09-15T16:04:22.222Z,18.01
2022-09-15T16:09:24.920Z,17.79
2022-09-15T16:14:27.639Z,17.57
2022-09-15T16:19:30.999Z,17.40
2022-09-15T16:24:33.679Z,17.27
2022-09-15T16:29:38.171Z,17.12
2022-09-15T16:34:40.993Z,16.97
2022-09-15T16:39:43.753Z,16.81
2022-09-15T16:44:46.761Z,16.69
2022-09-15T16:49:51.315Z,16.61
2022-09-15T16:54:56.466Z,16.51
2022-09-15T16:59:59.982Z,16.39
2022-09-15T17:05:02.647Z,16.26
2022-09-15T17:10:06.818Z,16.15
2022-09-15T17:15:30.881Z,16.09
2022-09-15T17:20:38.585Z,15.99
2022-09-15T17:25:48.914Z,15.92
2022-09-15T17:30:57.847Z,15.84
2022-09-15T17:36:00.862Z,15.79
2022-09-15T17:41:03.667Z,15.76
2022-09-15T17:46:06.933Z,15.71
2022-09-15T17:51:17.481Z,15.64
2022-09-15T17:56:20.229Z,15.56
2022-09-15T18:01:23.028Z,15.47
2022-09-15T18:06:25.738Z,15.37
2022-09-15T18:11:28.882Z,15.32
2022-09-15T18:16:31.535Z,15.24
2022-09-15T18:21:34.324Z,15.13
2022-09-15T18:26:37.396Z,15.06
2022-09-15T18:31:40.620Z,15.03
2022-09-15T18:36:43.271Z,15.01
2022-09-15T18:41:46.049Z,14.98
2022-09-15T18:46:48.878Z,14.97
2022-09-15T18:51:52.202Z,14.98
2022-09-15T18:56:55.015Z,14.96
2022-09-15T19:01:57.837Z,14.95
2022-09-15T19:07:00.620Z,14.98
2022-09-15T19:12:04.199Z,15.03
2022-09-15T19:17:07.026Z,15.04
2022-09-15T19:22:10.388Z,15.05
2022-09-15T19:27:13.133Z,15.08
2022-09-15T19:32:19.971Z,15.10
2022-09-15T19:37:22.922Z,15.09
2022-09-15T19:42:26.269Z,15.11
2022-09-15T19:47:28.958Z,15.14
2022-09-15T19:52:31.811Z,15.13
2022-09-15T19:57:34.623Z,15.14
2022-09-15T20:02:37.433Z,15.12
2022-09-15T20:07:40.261Z,15.08
2022-09-15T20:12:43.024Z,15.10
2022-09-15T20:17:45.703Z,15.14
2022-09-15T20:22:48.577Z,15.12
2022-09-15T20:27:54.614Z,15.09
2022-09-15T20:32:57.313Z,15.08
2022-09-15T20:37:59.989Z,15.06
2022-09-15T20:43:02.638Z,15.02
2022-09-15T20:48:05.338Z,14.95
2022-09-15T20:53:08.117Z,14.85
2022-09-15T20:58:10.997Z,14.77
2022-09-15T21:03:15.262Z,14.69
2022-09-15T21:08:17.990Z,14.60
2022-09-15T21:13:24.195Z,14.54
2022-09-15T21:18:28.691Z,14.46
2022-09-15T21:23:55.107Z,14.40
2022-09-15T21:28:57.954Z,14.31
2022-09-15T21:34:00.574Z,14.26
2022-09-15T21:39:03.634Z,14.24
2022-09-15T21:44:06.362Z,14.18
2022-09-15T21:49:09.220Z,14.12
2022-09-15T21:54:11.970Z,14.07
2022-09-15T21:59:33.233Z,13.99
2022-09-15T22:04:35.955Z,13.94
2022-09-15T22:09:39.935Z,13.89
2022-09-15T22:14:42.671Z,13.83
2022-09-15T22:19:45.388Z,13.74
2022-09-15T22:24:48.226Z,13.69
2022-09-15T22:29:50.889Z,13.64
2022-09-15T22:34:54.812Z,13.57
2022-09-15T22:39:59.207Z,13.48
2022-09-15T22:45:02.272Z,13.41
2022-09-15T22:50:05.219Z,13.36
2022-09-15T22:55:08.449Z,13.26
2022-09-15T23:00:12.387Z,13.14
2022-09-15T23:05:15.119Z,13.08
2022-09-15T23:10:18.236Z,13.04
2022-09-15T23:15:20.903Z,13.02
2022-09-15T23:20:23.616Z,12.98
2022-09-15T23:25:26.316Z,12.89
2022-09-15T23:30:29.163Z,12.81
2022-09-15T23:35:31.901Z,12.72
2022-09-15T23:40:34.600Z,12.68
2022-09-15T23:45:37.573Z,12.61
2022-09-15T23:50:40.667Z,12.55
2022-09-15T23:55:43.550Z,12.51
